sensor_id;sensor_type;location;lat;lon;timestamp;temperature;humidity
23755;DHT22;12057;52.042;6.830;2023-12-29T00:00:56;13.20;99.90
23755;DHT22;12057;52.042;6.830;2023-12-29T00:05:57;13.00;99.90
23755;DHT22;12057;52.042;6.830;2023-12-29T00:10:58;13.20;99.90
23755;DHT22;12057;52.042;6.830;2023-12-29T00:15:58;13.20;99.90
23755;DHT22;12057;52.042;6.830;2023-12-29T00:20:59;13.30;99.90
23755;DHT22;12057;52.042;6.830;2023-12-29T00:26:00;13.00;99.90
23755;DHT22;12057;52.042;6.830;2023-12-29T00:31:01;13.30;99.90
23755;DHT22;12057;52.042;6.830;2023-12-29T00:36:02;13.10;99.90
23755;DHT22;12057;52.042;6.830;2023-12-29T00:41:04;13.40;99.90
23755;DHT22;12057;52.042;6.830;2023-12-29T00:46:06;13.40;99.90
23755;DHT22;12057;52.042;6.830;2023-12-29T00:51:06;13.50;99.90
23755;DHT22;12057;52.042;6.830;2023-12-29T00:56:11;13.70;99.90
23755;DHT22;12057;52.042;6.830;2023-12-29T01:01:12;13.40;99.90
23755;DHT22;12057;52.042;6.830;2023-12-29T01:06:13;13.10;99.90
23755;DHT22;12057;52.042;6.830;2023-12-29T01:11:14;13.20;99.90
23755;DHT22;12057;52.042;6.830;2023-12-29T01:16:15;13.70;99.90
23755;DHT22;12057;52.042;6.830;2023-12-29T01:21:15;13.50;99.90
23755;DHT22;12057;52.042;6.830;2023-12-29T01:26:16;13.50;99.90
23755;DHT22;12057;52.042;6.830;2023-12-29T01:31:17;13.20;99.90
23755;DHT22;12057;52.042;6.830;2023-12-29T01:36:18;13.40;99.90
23755;DHT22;12057;52.042;6.830;2023-12-29T01:41:20;13.30;99.90
23755;DHT22;12057;52.042;6.830;2023-12-29T01:46:21;13.30;99.90
23755;DHT22;12057;52.042;6.830;2023-12-29T01:51:24;13.10;99.90
23755;DHT22;12057;52.042;6.830;2023-12-29T01:56:25;13.00;99.90
23755;DHT22;12057;52.042;6.830;2023-12-29T02:01:27;13.20;99.90
23755;DHT22;12057;52.042;6.830;2023-12-29T02:06:28;13.30;99.90
23755;DHT22;12057;52.042;6.830;2023-12-29T02:11:29;13.20;99.90
23755;DHT22;12057;52.042;6.830;2023-12-29T02:21:53;13.10;99.90
23755;DHT22;12057;52.042;6.830;2023-12-29T02:32:12;13.10;99.90
23755;DHT22;12057;52.042;6.830;2023-12-29T02:37:14;12.50;99.90
23755;DHT22;12057;52.042;6.830;2023-12-29T02:42:15;12.60;99.90
23755;DHT22;12057;52.042;6.830;2023-12-29T02:47:16;12.40;99.90
23755;DHT22;12057;52.042;6.830;2023-12-29T02:52:17;12.40;99.90
23755;DHT22;12057;52.042;6.830;2023-12-29T02:57:18;12.40;99.90
23755;DHT22;12057;52.042;6.830;2023-12-29T03:02:19;12.20;99.90
23755;DHT22;12057;52.042;6.830;2023-12-29T03:07:19;12.10;99.90
23755;DHT22;12057;52.042;6.830;2023-12-29T03:12:20;12.30;99.90
23755;DHT22;12057;52.042;6.830;2023-12-29T03:17:21;12.70;99.90
23755;DHT22;12057;52.042;6.830;2023-12-29T03:22:22;12.60;99.90
23755;DHT22;12057;52.042;6.830;2023-12-29T03:27:22;12.40;99.90
23755;DHT22;12057;52.042;6.830;2023-12-29T03:32:23;12.30;99.90
23755;DHT22;12057;52.042;6.830;2023-12-29T03:37:27;12.40;99.90
23755;DHT22;12057;52.042;6.830;2023-12-29T03:42:28;12.40;99.90
23755;DHT22;12057;52.042;6.830;2023-12-29T03:47:28;12.50;99.90
23755;DHT22;12057;52.042;6.830;2023-12-29T03:52:30;12.70;99.90
23755;DHT22;12057;52.042;6.830;2023-12-29T03:57:31;12.50;99.90
23755;DHT22;12057;52.042;6.830;2023-12-29T04:02:32;12.70;99.90
23755;DHT22;12057;52.042;6.830;2023-12-29T04:07:33;12.70;99.90
23755;DHT22;12057;52.042;6.830;2023-12-29T04:12:33;12.40;99.90
23755;DHT22;12057;52.042;6.830;2023-12-29T04:17:34;12.40;99.90
23755;DHT22;12057;52.042;6.830;2023-12-29T04:22:35;12.40;99.90
23755;DHT22;12057;52.042;6.830;2023-12-29T04:27:36;12.50;99.90
23755;DHT22;12057;52.042;6.830;2023-12-29T04:32:36;12.40;99.90
23755;DHT22;12057;52.042;6.830;2023-12-29T04:37:37;12.40;99.90
23755;DHT22;12057;52.042;6.830;2023-12-29T04:42:38;12.30;99.90
23755;DHT22;12057;52.042;6.830;2023-12-29T04:47:39;12.70;99.90
23755;DHT22;12057;52.042;6.830;2023-12-29T04:52:40;12.60;99.90
23755;DHT22;12057;52.042;6.830;2023-12-29T04:57:40;12.60;99.90
23755;DHT22;12057;52.042;6.830;2023-12-29T05:02:42;12.70;99.90
23755;DHT22;12057;52.042;6.830;2023-12-29T05:07:43;12.60;99.90
23755;DHT22;12057;52.042;6.830;2023-12-29T05:12:44;12.80;99.90
23755;DHT22;12057;52.042;6.830;2023-12-29T05:17:44;12.60;99.90
23755;DHT22;12057;52.042;6.830;2023-12-29T05:22:45;12.70;99.90
23755;DHT22;12057;52.042;6.830;2023-12-29T05:27:46;12.60;99.90
23755;DHT22;12057;52.042;6.830;2023-12-29T05:32:47;13.00;99.90
23755;DHT22;12057;52.042;6.830;2023-12-29T05:37:48;13.00;99.90
23755;DHT22;12057;52.042;6.830;2023-12-29T05:42:51;13.00;99.90
23755;DHT22;12057;52.042;6.830;2023-12-29T05:47:51;12.90;99.90
23755;DHT22;12057;52.042;6.830;2023-12-29T05:52:52;13.00;99.90
23755;DHT22;12057;52.042;6.830;2023-12-29T05:57:53;12.80;99.90
23755;DHT22;12057;52.042;6.830;2023-12-29T06:02:54;12.90;99.90
23755;DHT22;12057;52.042;6.830;2023-12-29T06:07:54;12.90;99.90
23755;DHT22;12057;52.042;6.830;2023-12-29T06:12:55;12.90;99.90
23755;DHT22;12057;52.042;6.830;2023-12-29T06:17:57;13.00;99.90
23755;DHT22;12057;52.042;6.830;2023-12-29T06:22:58;12.80;99.90
23755;DHT22;12057;52.042;6.830;2023-12-29T06:27:59;12.80;99.90
23755;DHT22;12057;52.042;6.830;2023-12-29T06:33:00;12.80;99.90
23755;DHT22;12057;52.042;6.830;2023-12-29T06:38:01;12.80;99.90
23755;DHT22;12057;52.042;6.830;2023-12-29T06:43:01;13.00;99.90
23755;DHT22;12057;52.042;6.830;2023-12-29T06:48:02;13.00;99.90
23755;DHT22;12057;52.042;6.830;2023-12-29T06:53:03;12.90;99.90
23755;DHT22;12057;52.042;6.830;2023-12-29T06:58:04;13.10;99.90
23755;DHT22;12057;52.042;6.830;2023-12-29T07:03:05;13.00;99.90
23755;DHT22;12057;52.042;6.830;2023-12-29T07:08:06;13.20;99.90
23755;DHT22;12057;52.042;6.830;2023-12-29T07:13:07;12.80;99.90
23755;DHT22;12057;52.042;6.830;2023-12-29T07:18:08;13.10;99.90
23755;DHT22;12057;52.042;6.830;2023-12-29T07:23:09;13.00;99.90
23755;DHT22;12057;52.042;6.830;2023-12-29T07:28:09;12.80;99.90
23755;DHT22;12057;52.042;6.830;2023-12-29T07:33:10;12.90;99.90
23755;DHT22;12057;52.042;6.830;2023-12-29T07:38:11;12.70;99.90
23755;DHT22;12057;52.042;6.830;2023-12-29T07:43:12;12.80;99.90
23755;DHT22;12057;52.042;6.830;2023-12-29T07:48:14;12.60;99.90
23755;DHT22;12057;52.042;6.830;2023-12-29T07:53:14;12.60;99.90
23755;DHT22;12057;52.042;6.830;2023-12-29T07:58:15;12.60;99.90
23755;DHT22;12057;52.042;6.830;2023-12-29T08:03:16;12.70;99.90
23755;DHT22;12057;52.042;6.830;2023-12-29T08:08:17;12.60;99.90
23755;DHT22;12057;52.042;6.830;2023-12-29T08:13:17;13.00;99.90
23755;DHT22;12057;52.042;6.830;2023-12-29T08:18:18;13.10;99.90
23755;DHT22;12057;52.042;6.830;2023-12-29T08:23:19;12.80;99.90
23755;DHT22;12057;52.042;6.830;2023-12-29T08:28:20;12.80;99.90
23755;DHT22;12057;52.042;6.830;2023-12-29T08:33:20;12.80;99.90
23755;DHT22;12057;52.042;6.830;2023-12-29T08:38:21;12.50;99.90
23755;DHT22;12057;52.042;6.830;2023-12-29T08:43:22;12.80;99.90
23755;DHT22;12057;52.042;6.830;2023-12-29T08:48:23;12.70;99.90
23755;DHT22;12057;52.042;6.830;2023-12-29T08:53:24;12.50;99.90
23755;DHT22;12057;52.042;6.830;2023-12-29T08:58:25;12.50;99.90
23755;DHT22;12057;52.042;6.830;2023-12-29T09:03:26;12.30;99.90
23755;DHT22;12057;52.042;6.830;2023-12-29T09:08:27;12.40;99.90
23755;DHT22;12057;52.042;6.830;2023-12-29T09:13:28;12.30;99.90
23755;DHT22;12057;52.042;6.830;2023-12-29T09:18:29;12.60;99.90
23755;DHT22;12057;52.042;6.830;2023-12-29T09:23:29;12.60;99.90
23755;DHT22;12057;52.042;6.830;2023-12-29T09:28:32;12.60;99.90
23755;DHT22;12057;52.042;6.830;2023-12-29T09:33:33;12.50;99.90
23755;DHT22;12057;52.042;6.830;2023-12-29T09:38:34;12.60;99.90
23755;DHT22;12057;52.042;6.830;2023-12-29T09:43:36;12.70;99.90
23755;DHT22;12057;52.042;6.830;2023-12-29T09:48:38;12.60;99.90
23755;DHT22;12057;52.042;6.830;2023-12-29T09:53:41;12.70;99.90
23755;DHT22;12057;52.042;6.830;2023-12-29T09:58:43;13.00;99.90
23755;DHT22;12057;52.042;6.830;2023-12-29T10:03:47;12.80;99.90
23755;DHT22;12057;52.042;6.830;2023-12-29T10:08:50;12.80;99.90
23755;DHT22;12057;52.042;6.830;2023-12-29T10:13:54;12.90;99.90
23755;DHT22;12057;52.042;6.830;2023-12-29T10:19:17;13.10;99.90
23755;DHT22;12057;52.042;6.830;2023-12-29T10:24:24;13.20;99.90
23755;DHT22;12057;52.042;6.830;2023-12-29T10:29:27;12.90;99.90
23755;DHT22;12057;52.042;6.830;2023-12-29T10:34:28;12.90;99.90
23755;DHT22;12057;52.042;6.830;2023-12-29T10:39:32;13.20;99.90
23755;DHT22;12057;52.042;6.830;2023-12-29T10:44:37;13.10;99.90
23755;DHT22;12057;52.042;6.830;2023-12-29T10:49:41;12.90;99.90
23755;DHT22;12057;52.042;6.830;2023-12-29T10:54:43;12.90;99.90
23755;DHT22;12057;52.042;6.830;2023-12-29T10:59:54;13.40;99.90
23755;DHT22;12057;52.042;6.830;2023-12-29T11:05:24;13.30;99.90
23755;DHT22;12057;52.042;6.830;2023-12-29T11:10:26;13.50;99.90
23755;DHT22;12057;52.042;6.830;2023-12-29T11:15:27;13.50;99.90
23755;DHT22;12057;52.042;6.830;2023-12-29T11:20:29;13.40;99.90
23755;DHT22;12057;52.042;6.830;2023-12-29T11:25:30;13.40;99.90
23755;DHT22;12057;52.042;6.830;2023-12-29T11:30:30;13.70;99.90
23755;DHT22;12057;52.042;6.830;2023-12-29T11:35:45;13.50;99.90
23755;DHT22;12057;52.042;6.830;2023-12-29T11:41:15;13.70;99.90
23755;DHT22;12057;52.042;6.830;2023-12-29T11:46:39;14.00;99.90
23755;DHT22;12057;52.042;6.830;2023-12-29T11:51:46;13.70;99.90
23755;DHT22;12057;52.042;6.830;2023-12-29T11:56:49;13.80;99.90
23755;DHT22;12057;52.042;6.830;2023-12-29T12:01:55;13.60;99.90
23755;DHT22;12057;52.042;6.830;2023-12-29T12:06:56;13.70;99.90
23755;DHT22;12057;52.042;6.830;2023-12-29T12:11:57;13.90;99.90
23755;DHT22;12057;52.042;6.830;2023-12-29T12:16:58;14.00;99.90
23755;DHT22;12057;52.042;6.830;2023-12-29T12:21:59;13.90;99.90
23755;DHT22;12057;52.042;6.830;2023-12-29T12:27:00;13.70;99.90
23755;DHT22;12057;52.042;6.830;2023-12-29T12:32:02;13.80;99.90
23755;DHT22;12057;52.042;6.830;2023-12-29T12:37:03;14.00;99.90
23755;DHT22;12057;52.042;6.830;2023-12-29T12:42:04;13.70;99.90
23755;DHT22;12057;52.042;6.830;2023-12-29T12:47:08;13.90;99.90
23755;DHT22;12057;52.042;6.830;2023-12-29T12:52:10;14.10;99.90
23755;DHT22;12057;52.042;6.830;2023-12-29T12:57:11;14.00;99.90
23755;DHT22;12057;52.042;6.830;2023-12-29T13:02:12;13.80;99.90
23755;DHT22;12057;52.042;6.830;2023-12-29T13:07:17;13.60;99.90
23755;DHT22;12057;52.042;6.830;2023-12-29T13:12:18;13.80;99.90
23755;DHT22;12057;52.042;6.830;2023-12-29T13:17:19;14.30;99.90
23755;DHT22;12057;52.042;6.830;2023-12-29T13:22:23;14.10;99.90
23755;DHT22;12057;52.042;6.830;2023-12-29T13:27:24;14.20;99.90
23755;DHT22;12057;52.042;6.830;2023-12-29T13:32:27;14.40;99.90
23755;DHT22;12057;52.042;6.830;2023-12-29T13:42:54;14.30;99.90
23755;DHT22;12057;52.042;6.830;2023-12-29T13:47:58;14.20;99.90
23755;DHT22;12057;52.042;6.830;2023-12-29T13:53:00;14.30;99.90
23755;DHT22;12057;52.042;6.830;2023-12-29T13:58:00;14.30;99.90
23755;DHT22;12057;52.042;6.830;2023-12-29T14:03:22;14.30;99.90
23755;DHT22;12057;52.042;6.830;2023-12-29T14:08:32;14.20;99.90
23755;DHT22;12057;52.042;6.830;2023-12-29T14:13:46;14.50;99.90
23755;DHT22;12057;52.042;6.830;2023-12-29T14:18:57;14.60;99.90
23755;DHT22;12057;52.042;6.830;2023-12-29T14:29:06;14.70;99.90
23755;DHT22;12057;52.042;6.830;2023-12-29T14:34:07;14.60;99.90
23755;DHT22;12057;52.042;6.830;2023-12-29T14:39:08;14.30;99.90
23755;DHT22;12057;52.042;6.830;2023-12-29T14:44:12;14.30;99.90
23755;DHT22;12057;52.042;6.830;2023-12-29T14:49:13;14.30;99.90
23755;DHT22;12057;52.042;6.830;2023-12-29T14:54:14;14.30;99.90
23755;DHT22;12057;52.042;6.830;2023-12-29T14:59:14;14.00;99.90
23755;DHT22;12057;52.042;6.830;2023-12-29T15:04:15;13.90;99.90
23755;DHT22;12057;52.042;6.830;2023-12-29T15:09:16;14.00;99.90
23755;DHT22;12057;52.042;6.830;2023-12-29T15:14:17;13.10;99.90
23755;DHT22;12057;52.042;6.830;2023-12-29T15:19:18;12.80;99.90
23755;DHT22;12057;52.042;6.830;2023-12-29T15:24:22;12.10;99.90
23755;DHT22;12057;52.042;6.830;2023-12-29T15:29:23;12.40;99.90
23755;DHT22;12057;52.042;6.830;2023-12-29T15:34:24;12.40;99.90
23755;DHT22;12057;52.042;6.830;2023-12-29T15:39:25;12.70;99.90
23755;DHT22;12057;52.042;6.830;2023-12-29T15:44:25;12.90;99.90
23755;DHT22;12057;52.042;6.830;2023-12-29T15:49:26;13.00;99.90
23755;DHT22;12057;52.042;6.830;2023-12-29T15:54:30;12.90;99.90
23755;DHT22;12057;52.042;6.830;2023-12-29T15:59:33;12.90;99.90
23755;DHT22;12057;52.042;6.830;2023-12-29T16:04:34;13.10;99.90
23755;DHT22;12057;52.042;6.830;2023-12-29T16:09:35;13.20;99.90
23755;DHT22;12057;52.042;6.830;2023-12-29T16:14:35;13.10;99.90
23755;DHT22;12057;52.042;6.830;2023-12-29T16:19:36;13.20;99.90
23755;DHT22;12057;52.042;6.830;2023-12-29T16:24:37;13.30;99.90
23755;DHT22;12057;52.042;6.830;2023-12-29T16:29:40;13.50;99.90
23755;DHT22;12057;52.042;6.830;2023-12-29T16:34:40;13.70;99.90
23755;DHT22;12057;52.042;6.830;2023-12-29T16:39:41;13.60;99.90
23755;DHT22;12057;52.042;6.830;2023-12-29T16:44:42;13.60;99.90
23755;DHT22;12057;52.042;6.830;2023-12-29T16:49:43;13.60;99.90
23755;DHT22;12057;52.042;6.830;2023-12-29T16:54:44;13.40;99.90
23755;DHT22;12057;52.042;6.830;2023-12-29T16:59:45;13.10;99.90
23755;DHT22;12057;52.042;6.830;2023-12-29T17:04:45;12.90;99.90
23755;DHT22;12057;52.042;6.830;2023-12-29T17:09:46;13.00;99.90
23755;DHT22;12057;52.042;6.830;2023-12-29T17:14:47;13.00;99.90
23755;DHT22;12057;52.042;6.830;2023-12-29T17:19:48;12.90;99.90
23755;DHT22;12057;52.042;6.830;2023-12-29T17:24:48;12.90;99.90
23755;DHT22;12057;52.042;6.830;2023-12-29T17:29:49;12.80;99.90
23755;DHT22;12057;52.042;6.830;2023-12-29T17:34:50;12.80;99.90
23755;DHT22;12057;52.042;6.830;2023-12-29T17:39:51;12.50;99.90
23755;DHT22;12057;52.042;6.830;2023-12-29T17:44:52;12.60;99.90
23755;DHT22;12057;52.042;6.830;2023-12-29T17:49:52;12.70;99.90
23755;DHT22;12057;52.042;6.830;2023-12-29T17:54:53;12.80;99.90
23755;DHT22;12057;52.042;6.830;2023-12-29T17:59:54;12.90;99.90
23755;DHT22;12057;52.042;6.830;2023-12-29T18:04:55;12.80;99.90
23755;DHT22;12057;52.042;6.830;2023-12-29T18:09:56;13.00;99.90
23755;DHT22;12057;52.042;6.830;2023-12-29T18:14:56;12.60;99.90
23755;DHT22;12057;52.042;6.830;2023-12-29T18:19:57;11.50;99.90
23755;DHT22;12057;52.042;6.830;2023-12-29T18:24:58;11.10;99.90
23755;DHT22;12057;52.042;6.830;2023-12-29T18:30:00;11.10;99.90
23755;DHT22;12057;52.042;6.830;2023-12-29T18:35:00;11.20;99.90
23755;DHT22;12057;52.042;6.830;2023-12-29T18:40:05;11.10;99.90
23755;DHT22;12057;52.042;6.830;2023-12-29T18:45:06;11.10;99.90
23755;DHT22;12057;52.042;6.830;2023-12-29T18:50:07;11.30;99.90
23755;DHT22;12057;52.042;6.830;2023-12-29T18:55:09;11.40;99.90
23755;DHT22;12057;52.042;6.830;2023-12-29T19:00:10;11.50;99.90
23755;DHT22;12057;52.042;6.830;2023-12-29T19:05:11;11.40;99.90
23755;DHT22;12057;52.042;6.830;2023-12-29T19:10:12;11.00;99.90
23755;DHT22;12057;52.042;6.830;2023-12-29T19:15:14;10.80;99.90
23755;DHT22;12057;52.042;6.830;2023-12-29T19:20:15;10.70;99.90
23755;DHT22;12057;52.042;6.830;2023-12-29T19:25:16;10.70;99.90
23755;DHT22;12057;52.042;6.830;2023-12-29T19:30:17;10.70;99.90
23755;DHT22;12057;52.042;6.830;2023-12-29T19:35:18;11.00;99.90
23755;DHT22;12057;52.042;6.830;2023-12-29T19:40:19;11.00;99.90
23755;DHT22;12057;52.042;6.830;2023-12-29T19:45:20;11.10;99.90
23755;DHT22;12057;52.042;6.830;2023-12-29T19:50:22;11.10;99.90
23755;DHT22;12057;52.042;6.830;2023-12-29T19:55:22;11.00;99.90
23755;DHT22;12057;52.042;6.830;2023-12-29T20:00:23;11.00;99.90
23755;DHT22;12057;52.042;6.830;2023-12-29T20:05:24;11.00;99.90
23755;DHT22;12057;52.042;6.830;2023-12-29T20:10:25;11.10;99.90
23755;DHT22;12057;52.042;6.830;2023-12-29T20:15:27;11.10;99.90
23755;DHT22;12057;52.042;6.830;2023-12-29T20:20:27;11.20;99.90
23755;DHT22;12057;52.042;6.830;2023-12-29T20:25:28;11.30;99.90
23755;DHT22;12057;52.042;6.830;2023-12-29T20:30:29;11.20;99.90
23755;DHT22;12057;52.042;6.830;2023-12-29T20:35:30;11.20;99.90
23755;DHT22;12057;52.042;6.830;2023-12-29T20:40:31;11.20;99.90
23755;DHT22;12057;52.042;6.830;2023-12-29T20:45:32;11.10;99.90
23755;DHT22;12057;52.042;6.830;2023-12-29T20:50:33;11.20;99.90
23755;DHT22;12057;52.042;6.830;2023-12-29T20:55:34;11.20;99.90
23755;DHT22;12057;52.042;6.830;2023-12-29T21:00:34;11.20;99.90
23755;DHT22;12057;52.042;6.830;2023-12-29T21:05:35;11.10;99.90
23755;DHT22;12057;52.042;6.830;2023-12-29T21:10:36;11.10;99.90
23755;DHT22;12057;52.042;6.830;2023-12-29T21:15:37;11.10;99.90
23755;DHT22;12057;52.042;6.830;2023-12-29T21:20:38;11.10;99.90
23755;DHT22;12057;52.042;6.830;2023-12-29T21:25:38;11.10;99.90
23755;DHT22;12057;52.042;6.830;2023-12-29T21:30:39;10.90;99.90
23755;DHT22;12057;52.042;6.830;2023-12-29T21:35:42;10.30;99.90
23755;DHT22;12057;52.042;6.830;2023-12-29T21:40:43;10.10;99.90
23755;DHT22;12057;52.042;6.830;2023-12-29T21:45:43;10.00;99.90
23755;DHT22;12057;52.042;6.830;2023-12-29T21:50:44;10.10;99.90
23755;DHT22;12057;52.042;6.830;2023-12-29T21:55:45;10.40;99.90
23755;DHT22;12057;52.042;6.830;2023-12-29T22:00:46;10.70;99.90
23755;DHT22;12057;52.042;6.830;2023-12-29T22:05:47;11.00;99.90
23755;DHT22;12057;52.042;6.830;2023-12-29T22:10:47;10.80;99.90
23755;DHT22;12057;52.042;6.830;2023-12-29T22:15:48;9.90;99.90
23755;DHT22;12057;52.042;6.830;2023-12-29T22:20:49;9.70;99.90
23755;DHT22;12057;52.042;6.830;2023-12-29T22:25:51;9.80;99.90
23755;DHT22;12057;52.042;6.830;2023-12-29T22:30:52;10.20;99.90
23755;DHT22;12057;52.042;6.830;2023-12-29T22:35:52;10.00;99.90
23755;DHT22;12057;52.042;6.830;2023-12-29T22:40:53;10.00;99.90
23755;DHT22;12057;52.042;6.830;2023-12-29T22:45:54;9.80;99.90
23755;DHT22;12057;52.042;6.830;2023-12-29T22:50:56;9.70;99.90
23755;DHT22;12057;52.042;6.830;2023-12-29T22:55:57;9.40;99.90
23755;DHT22;12057;52.042;6.830;2023-12-29T23:00:58;9.40;99.90
23755;DHT22;12057;52.042;6.830;2023-12-29T23:05:59;9.70;99.90
23755;DHT22;12057;52.042;6.830;2023-12-29T23:11:00;9.80;99.90
23755;DHT22;12057;52.042;6.830;2023-12-29T23:16:01;9.60;99.90
23755;DHT22;12057;52.042;6.830;2023-12-29T23:21:02;9.70;99.90
23755;DHT22;12057;52.042;6.830;2023-12-29T23:26:03;9.40;99.90
23755;DHT22;12057;52.042;6.830;2023-12-29T23:31:07;9.60;99.90
23755;DHT22;12057;52.042;6.830;2023-12-29T23:36:09;9.60;99.90
23755;DHT22;12057;52.042;6.830;2023-12-29T23:41:09;9.70;99.90
23755;DHT22;12057;52.042;6.830;2023-12-29T23:46:10;10.00;99.90
23755;DHT22;12057;52.042;6.830;2023-12-29T23:51:11;10.00;99.90
23755;DHT22;12057;52.042;6.830;2023-12-29T23:56:12;10.10;99.90
